Flugplatz Schwarzheide/Schipkau

Für EDBZ sind keine METAR/TAF Berichte vorhanden.
Es werden die Flugwettermeldungen vom Flugplatz Dresden in 40 km Entfernung angezeigt.

Bericht für EDDC

vom 22.09. um 06:50 UTC

Wind 6 kt aus 140°

Sichtweite 10 km oder mehr

gute Sicht, keine Wolken < 5000 ft, keine CB, keine Wettererscheinungen (CAVOK)

Temperatur 15.0°C

Taupunkt 11.0°C

Luftfeuchtigkeit 77%

Luftdruck 1013 hPa

keine wesentliche Wetteränderung innerhalb den nächsten 2 Stunden zu erwarten

EDDC 220650Z 14006KT CAVOK 15/11 Q1013 NOSIG

Prognose für EDDC

vom 22.09. um 05:00 UTC

Zwischen 06:00 UTC und 06:00 UTC

Wind 7 kt aus 160°

Sichtweite 10 km oder mehr

keine signifikanten Wettererscheinungen

keine Wolken

TAF EDDC 220500Z 2206/2306 16007KT CAVOK
Impressum